LFOH/LEH METAR and TAF weather

Enter ICAO airport designator
Station Type Date Time Source
LFOH METAR 2021/09/28 16:00 UTC NOAA

LFOH 281600Z AUTO 20005KT 150V220 9999 -RA BKN043/// OVC058/// ///CB 18/12 Q1016 BECMG 19017G27KT NSC


Station Type Date Time Source
LFOH Decoded METAR 2021/09/28 16:00 UTC NOAA

La Heve, France (LFOH) 49-31N 000-04E 103M
Sep 28, 2021 - 12:00 PM EDT / 2021.09.28 1600 UTC
Wind: from the SSW (200 degrees) at 6 MPH (5 KT) (direction variable):0
Visibility: greater than 7 mile(s):0
Sky conditions: overcast
Weather: light rain; Cumulonimbus clouds observed
Temperature: 64 F (18 C)
Dew Point: 53 F (12 C)
Relative Humidity: 67%
Pressure (altimeter): 30.00 in. Hg (1016 hPa)
ob: LFOH 281600Z AUTO 20005KT 150V220 9999 -RA BKN043/// OVC058/// ///CB 18/12 Q1016 BECMG 19017G27KT NSC
cycle: 16

Station Type Date Time Source
LFOH TAF 2021/09/28 12:46 UTC NOAA

TAF LFOH 281100Z 2812/2912 20010KT CAVOK
BECMG 2815/2817 19017G27KT
TEMPO 2821/2903 19020G37KT 3000 SHRA BKN020 SCT030CB
TEMPO 2903/2912 27020G35KT 3000 SHRA BKN025TCU

Example: see airport list